Capitol Logistics 7459

Operating for MZN



KCLT
Charlotte/Douglas International Airport
Charlotte, North Carolina
KAFW
Fort Worth Alliance Airport
Fort Worth, Texas

Activity Log

Date Flight Route Aircraft Duration
04/22/2021 CPX7459 BOBZY4 BOBZY BRAYN GQO CRAMM PONYY TRUUK2 B738 2h 50m

Route Details

Aircraft Information
Group: North America Fleet
Types: B738,B752,B762,B763
Route Data
Distance: 825nm
Duration: 2h 14m
Recm'd Route: BOBZY4 BOBZY BRAYN GQO CRAMM PONYY TRUUK2
Origin Wx: KCLT 160852Z 19004KT 10SM CLR 19/17 A2986 RMK AO2 SLP104 T01890172 58016
Dest. Wx: KAFW 160853Z 32004KT 10SM CLR 09/06 A3030 RMK AO2 SLP257 T00940056 50008
Notes:

Financial History
Total Freight: 40,656lbs
Average Load: 40,656lbs/flt
Fuel Used: 14,427lbs
Avg. Fuel Used: 14,427lbs/flt
Fuel Expense: $3,318
Avg. Fuel Expense: $3,318
Avg. Fuel Cost: $0.23/lbs
Total Gross Income: $89,037
Pilot Pay: $239
Total Expenses: $10,224
Total Revenue: $74,813
Average Revenue: $89,036.64